KPDK/PDK METAR and TAF weather

Enter ICAO airport designator
Station Type Date Time Source
KPDK METAR 2020/08/15 09:53 UTC NOAA

KPDK 150953Z 22006KT 10SM OVC009 23/22 A2990 RMK AO2 SLP108 T02280222


Station Type Date Time Source
KPDK Decoded METAR 2020/08/15 09:53 UTC NOAA

ATLANTA DE KALB-PEACHTREE, GA, United States (KPDK) 33-53N 084-18W 302M
Aug 15, 2020 - 05:53 AM EDT / 2020.08.15 0953 UTC
Wind: from the SW (220 degrees) at 7 MPH (6 KT):0
Visibility: 10 mile(s):0
Sky conditions: overcast
Temperature: 73.0 F (22.8 C)
Dew Point: 72.0 F (22.2 C)
Relative Humidity: 96%
Pressure (altimeter): 29.9 in. Hg (1012 hPa)
ob: KPDK 150953Z 22006KT 10SM OVC009 23/22 A2990 RMK AO2 SLP108 T02280222
cycle: 10

Station Type Date Time Source
KPDK TAF 2020/08/15 08:34 UTC NOAA

TAF
AMD KPDK 150732Z 1508/1606 21004KT 5SM BR BKN004
FM151300 25003KT P6SM SCT004 OVC008
FM151500 26004KT P6SM VCSH SCT008 BKN012
FM151900 27005KT P6SM VCSH SCT025 BKN035
TEMPO 1519/1523 VRB15G25KT 4SM TSRA BKN025CB
FM160200 29005KT P6SM SCT050 BKN250

Example: see airport list